Time;durP1;ratioP1;P1;durP2;ratioP2;P2;SDS_P1;SDS_P2;PMS_P1;PMS_P2;Temp;Humidity;BMP_temperature;BMP_pressure;BME280_temperature;BME280_humidity;BME280_pressure;Samples;Min_cycle;Max_cycle;Signal;HPM_P1;HPM_P2
2023/03/26 00:08:23;;;;;;;6.00;5.40;;;;;;;5.43;85.01;98267.83;437679;1258;139807;-70
2023/03/26 00:18:30;;;;;;;5.50;4.80;;;;;;;5.43;84.86;98267.30;437877;1259;139369;-70
2023/03/26 00:28:36;;;;;;;8.40;4.80;;;;;;;5.44;84.72;98259.75;437917;1259;138959;-68
2023/03/26 00:38:43;;;;;;;7.50;4.20;;;;;;;5.47;84.57;98249.67;437784;1254;139308;-69
2023/03/26 00:48:50;;;;;;;4.70;3.20;;;;;;;5.46;84.45;98241.57;438029;1254;139639;-69
2023/03/26 00:58:56;;;;;;;5.60;4.10;;;;;;;5.47;84.29;98231.30;436846;1259;139333;-69
2023/03/26 01:09:12;;;;;;;5.40;3.80;;;;;;;5.47;84.50;98223.31;437529;1258;240357;-69
2023/03/26 01:19:29;;;;;;;4.90;3.10;;;;;;;5.43;84.52;98216.45;438873;1259;141112;-69
2023/03/26 01:29:42;;;;;;;5.70;2.90;;;;;;;5.44;84.35;98210.45;434952;1260;139950;-68
2023/03/26 01:39:55;;;;;;;5.70;3.10;;;;;;;5.48;84.15;98205.40;435398;1261;139985;-69
2023/03/26 01:50:01;;;;;;;4.80;3.00;;;;;;;5.49;83.83;98194.54;435320;1258;140599;-68
2023/03/26 02:00:18;;;;;;;4.60;3.70;;;;;;;5.46;83.48;98191.30;435000;1254;139718;-69
2023/03/26 02:10:28;;;;;;;5.00;3.80;;;;;;;5.43;83.36;98183.50;435205;1260;138784;-69
2023/03/26 02:20:34;;;;;;;7.90;4.20;;;;;;;5.38;83.04;98174.98;438460;1254;139979;-69
2023/03/26 02:30:40;;;;;;;5.60;3.90;;;;;;;5.24;82.93;98167.73;437856;1254;139218;-68
2023/03/26 02:40:45;;;;;;;4.50;3.30;;;;;;;5.12;82.96;98160.64;435523;1258;139671;-69
2023/03/26 02:50:53;;;;;;;7.40;4.10;;;;;;;5.07;82.98;98162.55;436947;1259;139614;-69
2023/03/26 03:01:01;;;;;;;6.00;4.10;;;;;;;5.12;82.95;98161.01;437217;1254;138835;-69
2023/03/26 03:11:11;;;;;;;4.60;3.30;;;;;;;5.19;82.89;98158.96;438382;1254;139773;-68
2023/03/26 03:21:19;;;;;;;4.70;3.70;;;;;;;5.25;82.64;98161.95;437326;1254;138702;-69
2023/03/26 03:31:27;;;;;;;4.70;2.40;;;;;;;5.26;82.65;98162.52;437964;1254;139192;-69
2023/03/26 03:41:32;;;;;;;4.20;2.40;;;;;;;5.16;82.50;98155.89;435231;1259;139328;-68
2023/03/26 03:51:38;;;;;;;3.50;2.40;;;;;;;5.10;82.67;98154.55;435255;1259;139887;-68
2023/03/26 04:01:45;;;;;;;3.00;2.20;;;;;;;5.14;82.83;98157.91;435217;1254;138787;-69
2023/03/26 04:11:51;;;;;;;3.80;2.70;;;;;;;5.24;82.74;98159.90;438520;1254;139770;-69
2023/03/26 04:22:01;;;;;;;3.30;2.30;;;;;;;5.31;82.88;98160.48;437996;1254;138569;-70
2023/03/26 04:32:11;;;;;;;4.40;2.60;;;;;;;5.33;83.49;98167.81;437986;1254;139298;-69
2023/03/26 04:42:18;;;;;;;2.20;1.60;;;;;;;5.28;84.34;98159.64;438606;1258;139167;-69
2023/03/26 04:52:24;;;;;;;2.30;2.00;;;;;;;5.19;85.23;98143.03;435609;1257;139038;-70
2023/03/26 05:02:31;;;;;;;4.10;2.70;;;;;;;5.11;86.31;98141.27;437879;1254;139119;-69
2023/03/26 05:12:37;;;;;;;3.60;2.80;;;;;;;5.07;87.92;98140.36;438038;1256;139642;-69
2023/03/26 05:22:43;;;;;;;4.20;2.50;;;;;;;5.15;89.19;98138.44;437757;1258;140249;-68
2023/03/26 05:32:50;;;;;;;3.80;2.70;;;;;;;5.31;89.17;98138.09;435003;1254;140965;-69
2023/03/26 05:42:56;;;;;;;2.80;1.70;;;;;;;7.75;92.07;98144.09;436083;1254;139149;-69
2023/03/26 05:53:02;;;;;;;2.60;1.90;;;;;;;11.84;83.54;98127.03;437923;1259;140078;-70
2023/03/26 06:03:11;;;;;;;3.40;2.00;;;;;;;10.53;82.76;98130.71;438200;1254;139572;-69
2023/03/26 06:13:17;;;;;;;2.70;2.30;;;;;;;11.36;79.09;98136.50;435242;1259;140026;-70
2023/03/26 06:23:23;;;;;;;1.50;1.20;;;;;;;9.17;79.25;98144.61;437682;1254;139391;-69
2023/03/26 06:33:29;;;;;;;2.30;1.30;;;;;;;8.73;81.01;98145.45;437586;1256;138750;-69
2023/03/26 06:43:36;;;;;;;2.30;1.30;;;;;;;11.77;78.89;98138.78;437372;1254;138954;-68
2023/03/26 06:53:42;;;;;;;1.20;1.00;;;;;;;14.43;72.74;98138.25;436115;1254;141938;-70
2023/03/26 07:03:48;;;;;;;1.20;0.90;;;;;;;12.51;71.34;98148.29;438404;1256;138761;-70
2023/03/26 07:13:55;;;;;;;1.40;0.80;;;;;;;11.33;71.07;98165.34;437823;1254;139589;-70
2023/03/26 07:24:03;;;;;;;1.50;0.80;;;;;;;10.05;72.91;98169.04;435383;1254;139302;-69
2023/03/26 07:34:19;;;;;;;2.50;1.70;;;;;;;11.81;72.03;98172.04;435518;1257;139963;-69
2023/03/26 07:44:38;;;;;;;3.30;0.70;;;;;;;10.42;71.59;98174.66;437433;1254;139697;-68
2023/03/26 07:54:45;;;;;;;0.90;0.90;;;;;;;9.78;74.82;98176.86;438342;1254;139717;-70
2023/03/26 08:05:02;;;;;;;2.40;1.10;;;;;;;10.69;73.26;98175.64;437781;1254;138954;-68
2023/03/26 08:15:18;;;;;;;1.00;0.90;;;;;;;9.39;75.16;98179.66;435700;1255;139426;-69
2023/03/26 08:25:31;;;;;;;2.30;0.80;;;;;;;9.33;75.89;98185.62;435440;1255;139883;-72
2023/03/26 08:35:41;;;;;;;2.40;0.90;;;;;;;8.42;76.75;98181.90;437550;1254;139061;-68
2023/03/26 08:46:07;;;;;;;1.70;1.30;;;;;;;8.20;78.38;98179.54;435931;1258;139435;-66
2023/03/26 08:56:24;;;;;;;1.30;1.20;;;;;;;8.34;77.91;98180.94;435296;1257;140385;-67
2023/03/26 09:06:56;;;;;;;1.60;1.50;;;;;;;7.30;79.76;98192.60;434824;1256;140265;-68
2023/03/26 09:17:20;;;;;;;4.00;2.10;;;;;;;7.69;82.11;98183.20;434780;1256;139466;-68
2023/03/26 09:27:48;;;;;;;2.00;1.70;;;;;;;8.48;81.52;98173.22;435747;1258;139227;-67
2023/03/26 09:37:59;;;;;;;2.30;1.80;;;;;;;9.43;81.34;98168.54;434807;1255;139467;-69
2023/03/26 09:48:19;;;;;;;1.70;0.90;;;;;;;10.01;80.46;98164.98;435167;1259;140141;-68
2023/03/26 09:58:41;;;;;;;3.20;1.50;;;;;;;10.89;78.11;98153.27;435352;1259;140624;-67
2023/03/26 10:08:59;;;;;;;1.20;1.00;;;;;;;11.19;75.65;98142.08;435330;1257;139119;-68
2023/03/26 10:19:21;;;;;;;0.70;0.60;;;;;;;11.05;74.03;98144.71;435355;1258;140125;-67
2023/03/26 10:29:48;;;;;;;2.20;0.60;;;;;;;11.61;72.50;98137.09;434955;1254;140247;-68
2023/03/26 10:40:10;;;;;;;;;;;;;;;11.95;70.35;98131.86;435196;1254;139496;-67
2023/03/26 10:50:31;;;;;;;1.40;0.90;;;;;;;12.43;69.03;98125.01;434638;1256;126893;-67
2023/03/26 11:00:43;;;;;;;1.30;1.20;;;;;;;12.09;67.48;98118.02;434890;1256;138909;-67
2023/03/26 11:10:56;;;;;;;1.00;1.00;;;;;;;11.69;66.57;98120.57;434775;1254;139072;-68
2023/03/26 11:21:13;;;;;;;1.70;1.00;;;;;;;11.77;67.21;98125.30;435095;1258;139834;-69
2023/03/26 11:31:38;;;;;;;1.20;1.00;;;;;;;12.08;66.56;98120.21;434993;1258;139087;-67
2023/03/26 11:41:45;;;;;;;1.00;0.50;;;;;;;11.79;65.96;98125.45;434780;1259;139015;-68
2023/03/26 11:51:51;;;;;;;1.60;0.90;;;;;;;11.70;65.36;98126.80;434857;1256;138561;-67
2023/03/26 12:02:14;;;;;;;1.20;0.70;;;;;;;11.06;66.23;98126.56;435402;1255;139412;-67
2023/03/26 12:12:21;;;;;;;3.30;0.60;;;;;;;10.80;67.41;98126.98;434934;1259;140207;-66
2023/03/26 12:22:35;;;;;;;1.20;0.90;;;;;;;11.05;66.50;98109.71;435060;1255;139099;-67
2023/03/26 12:32:43;;;;;;;1.60;0.30;;;;;;;10.95;65.49;98111.29;435405;1254;138532;-67
2023/03/26 12:42:56;;;;;;;1.10;0.70;;;;;;;11.07;65.00;98116.48;435401;1256;138862;-67
2023/03/26 12:53:38;;;;;;;1.00;0.60;;;;;;;10.26;67.97;98129.46;435104;1256;140335;-66
2023/03/26 13:04:08;;;;;;;1.50;1.40;;;;;;;9.70;70.11;98122.31;434888;1258;139379;-67
2023/03/26 13:14:48;;;;;;;1.40;1.30;;;;;;;10.00;70.41;98115.05;435163;1256;170079;-68
2023/03/26 13:25:06;;;;;;;2.60;1.40;;;;;;;10.03;70.49;98111.66;435173;1256;140061;-68
2023/03/26 13:35:21;;;;;;;;;;;;;;;10.46;70.95;98109.27;435061;1256;140282;-68
2023/03/26 13:45:42;;;;;;;1.60;1.50;;;;;;;10.94;69.84;98090.05;437740;1256;125565;-72
2023/03/26 13:55:52;;;;;;;1.90;0.90;;;;;;;10.59;69.08;98082.55;437701;1257;140070;-72
2023/03/26 14:06:04;;;;;;;1.20;1.00;;;;;;;10.60;68.37;98080.06;437419;1259;139260;-72
2023/03/26 14:16:18;;;;;;;1.90;1.40;;;;;;;11.05;67.90;98073.85;437481;1255;139537;-72
2023/03/26 14:26:36;;;;;;;2.50;1.80;;;;;;;11.35;68.13;98072.69;439182;1256;138464;-72
2023/03/26 14:37:16;;;;;;;3.40;1.90;;;;;;;11.08;67.73;98078.80;437324;1256;138901;-73
2023/03/26 14:47:40;;;;;;;1.40;1.30;;;;;;;10.66;67.58;98077.77;437344;1256;139082;-73
2023/03/26 14:58:03;;;;;;;1.40;1.30;;;;;;;10.70;68.41;98073.73;437565;1256;139273;-72
2023/03/26 15:08:40;;;;;;;1.90;1.80;;;;;;;10.56;67.84;98072.55;437569;1260;139261;-73
2023/03/26 15:19:16;;;;;;;2.90;1.70;;;;;;;10.57;68.29;98070.14;437292;1256;138253;-72
2023/03/26 15:30:04;;;;;;;1.30;0.90;;;;;;;10.56;67.89;98068.33;437217;1260;138659;-72
2023/03/26 15:40:35;;;;;;;1.50;1.40;;;;;;;10.33;67.41;98067.15;437296;1258;140457;-73
2023/03/26 15:50:52;;;;;;;3.10;2.40;;;;;;;10.08;67.50;98074.67;437428;1256;138337;-75
2023/03/26 16:01:17;;;;;;;3.10;1.90;;;;;;;9.70;67.70;98072.73;437570;1260;138746;-73
2023/03/26 16:11:35;;;;;;;;;;;;;;;9.37;68.31;98078.98;437402;1256;138204;-73
2023/03/26 16:21:44;;;;;;;;;;;;;;;9.13;68.80;98074.06;437779;1256;126583;-73
2023/03/26 16:31:59;;;;;;;;;;;;;;;8.74;69.58;98074.25;437740;1257;124988;-74
2023/03/26 16:42:11;;;;;;;;;;;;;;;8.34;70.16;98085.76;437694;1255;124563;-75
2023/03/26 16:52:22;;;;;;;;;;;;;;;7.97;70.49;98089.29;437881;1258;125643;-73
2023/03/26 17:02:31;;;;;;;;;;;;;;;7.68;70.95;98083.29;437500;1259;124892;-72
2023/03/26 17:12:41;;;;;;;;;;;;;;;7.42;71.37;98085.08;437831;1259;125901;-72
2023/03/26 17:22:47;;;;;;;;;;;;;;;7.08;72.04;98090.70;437818;1259;125905;-74
2023/03/26 17:32:58;;;;;;;;;;;;;;;6.69;72.96;98099.73;437916;1259;125181;-72
2023/03/26 17:43:04;;;;;;;;;;;;;;;6.35;73.89;98100.95;437918;1258;127708;-73
2023/03/26 17:53:16;;;;;;;;;;;;;;;6.02;75.04;98093.11;437919;1259;126186;-73
2023/03/26 18:03:23;;;;;;;;;;;;;;;5.71;75.83;98090.88;437991;1258;128679;-73
2023/03/26 18:13:42;;;;;;;;;;;;;;;5.42;76.86;98093.34;437759;1256;125566;-73
2023/03/26 18:23:47;;;;;;;;;;;;;;;5.13;77.80;98093.67;437971;1259;125858;-73
2023/03/26 18:33:55;;;;;;;;;;;;;;;4.83;78.60;98087.55;437785;1259;125081;-73
2023/03/26 18:44:02;;;;;;;;;;;;;;;4.56;79.42;98083.05;438530;1259;126335;-73
2023/03/26 18:54:08;;;;;;;;;;;;;;;4.36;80.19;98070.30;438021;1256;125830;-74
2023/03/26 19:04:12;;;;;;;;;;;;;;;4.17;80.66;98063.31;437924;1260;125085;-74
2023/03/26 19:14:18;;;;;;;;;;;;;;;3.96;81.62;98055.20;438069;1256;125736;-73
2023/03/26 19:24:23;;;;;;;;;;;;;;;3.75;82.30;98046.29;437883;1255;126966;-74
2023/03/26 19:34:32;;;;;;;;;;;;;;;3.54;82.78;98054.08;437938;1258;125319;-73
2023/03/26 19:44:38;;;;;;;;;;;;;;;3.37;83.54;98049.94;438179;1259;125874;-73
2023/03/26 19:54:49;;;;;;;;;;;;;;;3.17;83.54;98039.86;437815;1259;126995;-73
2023/03/26 20:05:03;;;;;;;;;;;;;;;2.99;84.06;98042.29;437895;1259;125694;-74
2023/03/26 20:15:14;;;;;;;;;;;;;;;2.82;84.76;98038.05;437955;1258;125027;-74
2023/03/26 20:25:23;;;;;;;;;;;;;;;2.64;85.41;98036.44;437577;1259;126315;-74
2023/03/26 20:35:31;;;;;;;;;;;;;;;2.54;85.74;98036.30;437681;1258;125837;-72
2023/03/26 20:45:40;;;;;;;;;;;;;;;2.63;85.87;98030.80;437807;1260;125704;-74
2023/03/26 20:55:45;;;;;;;;;;;;;;;2.89;86.27;98021.05;437590;1260;125781;-73
2023/03/26 21:05:51;;;;;;;;;;;;;;;3.03;86.53;98012.64;437527;1257;126026;-73
2023/03/26 21:15:56;;;;;;;;;;;;;;;2.89;86.82;98015.34;437493;1260;128301;-73
2023/03/26 21:26:06;;;;;;;;;;;;;;;2.79;86.77;98018.67;437721;1260;126890;-73
2023/03/26 21:36:12;;;;;;;;;;;;;;;3.02;87.60;98020.61;437567;1260;126512;-73
2023/03/26 21:46:17;;;;;;;;;;;;;;;3.43;88.46;98018.25;437553;1258;127015;-73
2023/03/26 21:56:27;;;;;;;;;;;;;;;3.76;88.48;98012.48;437381;1260;125318;-72
2023/03/26 22:06:35;;;;;;;;;;;;;;;4.01;88.41;98009.38;437380;1260;125730;-72
2023/03/26 22:16:40;;;;;;;;;;;;;;;4.18;88.26;98002.96;437667;1258;126668;-74
2023/03/26 22:26:44;;;;;;;;;;;;;;;4.31;88.33;97990.38;437782;1258;126371;-73
2023/03/26 22:39:47;;;;;;;57.20;35.40;;;;;;;4.42;88.15;97972.18;425908;1294;600536;-72
2023/03/26 22:49:53;;;;;;;64.00;43.10;;;;;;;4.49;88.01;97971.37;435249;1266;170753;-73
2023/03/26 23:00:07;;;;;;;70.20;43.90;;;;;;;4.60;88.52;97982.63;435626;1262;138583;-72
2023/03/26 23:10:13;;;;;;;62.60;40.30;;;;;;;4.66;88.79;97973.26;436045;1263;138014;-73
2023/03/26 23:20:51;;;;;;;55.10;38.10;;;;;;;4.68;88.88;97969.63;436203;1263;138560;-74
2023/03/26 23:31:58;;;;;;;58.30;38.20;;;;;;;4.67;89.23;97959.48;436901;1262;138703;-73
2023/03/26 23:42:04;;;;;;;60.80;40.20;;;;;;;4.69;89.31;97960.38;436959;1263;138543;-72
2023/03/26 23:52:36;;;;;;;59.60;40.20;;;;;;;4.68;89.34;97967.05;436496;1261;138665;-73
